← Previous June 18, 2024 9:17 AM

FTUS43 KABR 180529
TAFMBG
TAF
KMBG 180529Z 1806/1906 34014G25KT 6SM TSRAGR BR OVC017CB
      WS020/19030KT
     FM180800 03011G19KT 6SM TSRAGR BR OVC017CB
     FM180900 01008KT P6SM VCTS BKN017CB
     FM181100 31009KT P6SM OVC006
     FM181500 30015G23KT P6SM BKN009
     FM182200 29018G24KT P6SM FEW035 SCT045=